Time;durP1;ratioP1;P1;durP2;ratioP2;P2;SDS_P1;SDS_P2;PMS_P1;PMS_P2;Temp;Humidity;BMP_temperature;BMP_pressure;BME280_temperature;BME280_humidity;BME280_pressure;Samples;Min_cycle;Max_cycle;Signal;HPM_P1;HPM_P2
2023/10/09 00:00:50;;;;;;;2.23;2.23;;;20.80;77.50;;;;;;5069838;28;43462;-66
2023/10/09 00:03:23;;;;;;;2.37;2.37;;;20.80;77.50;;;;;;5077825;28;43861;-70
2023/10/09 00:05:53;;;;;;;2.40;2.40;;;20.80;77.70;;;;;;5087301;28;43383;-70
2023/10/09 00:08:23;;;;;;;2.37;2.37;;;20.70;77.90;;;;;;5087864;28;43346;-69
2023/10/09 00:10:54;;;;;;;2.43;2.43;;;20.70;78.20;;;;;;5088172;28;43375;-70
2023/10/09 00:13:30;;;;;;;2.17;2.13;;;20.80;77.90;;;;;;5079320;28;43615;-72
2023/10/09 00:16:01;;;;;;;2.33;2.33;;;20.90;77.50;;;;;;5068832;28;43734;-71
2023/10/09 00:18:33;;;;;;;2.27;2.17;;;20.90;77.20;;;;;;5068916;28;43334;-72
2023/10/09 00:21:11;;;;;;;2.30;2.30;;;20.90;77.20;;;;;;5069093;28;43401;-72
2023/10/09 00:23:40;;;;;;;2.20;2.20;;;20.90;77.50;;;;;;5065170;28;43610;-72
2023/10/09 00:26:12;;;;;;;2.50;2.40;;;20.90;77.50;;;;;;5068002;28;43327;-72
2023/10/09 00:28:51;;;;;;;2.33;2.30;;;20.80;77.40;;;;;;5067374;28;43335;-72
2023/10/09 00:31:28;;;;;;;2.40;2.40;;;20.80;77.50;;;;;;5067676;28;43550;-71
2023/10/09 00:34:03;;;;;;;2.43;2.43;;;20.80;77.70;;;;;;5066901;28;45426;-71
2023/10/09 00:36:32;;;;;;;2.30;2.30;;;20.80;78.20;;;;;;5060693;28;43435;-71
2023/10/09 00:39:11;;;;;;;2.47;2.37;;;20.70;78.10;;;;;;5068002;28;43759;-71
2023/10/09 00:41:41;;;;;;;2.30;2.30;;;20.70;78.00;;;;;;5067650;28;43546;-71
2023/10/09 00:44:14;;;;;;;2.20;2.20;;;20.70;78.00;;;;;;5066760;28;45581;-72
2023/10/09 00:46:43;;;;;;;2.70;2.60;;;20.60;78.30;;;;;;5066512;28;44812;-70
2023/10/09 00:49:15;;;;;;;2.20;2.20;;;20.70;78.40;;;;;;5066734;28;43468;-71
2023/10/09 00:51:56;;;;;;;2.23;2.23;;;20.80;78.10;;;;;;5066929;28;43526;-71
2023/10/09 00:54:28;;;;;;;2.20;2.20;;;20.90;77.50;;;;;;5066923;28;45832;-70
2023/10/09 00:57:06;;;;;;;2.00;2.00;;;21.10;77.00;;;;;;5067196;28;43455;-73
2023/10/09 00:59:36;;;;;;;2.47;2.47;;;21.10;76.70;;;;;;5066917;28;43992;-72
2023/10/09 01:02:05;;;;;;;2.00;2.00;;;21.10;76.70;;;;;;5066817;28;44241;-72
2023/10/09 01:04:37;;;;;;;2.30;2.30;;;21.00;76.80;;;;;;5067137;28;45401;-72
2023/10/09 01:07:08;;;;;;;2.33;2.33;;;20.90;77.20;;;;;;5066800;28;44874;-73
2023/10/09 01:09:38;;;;;;;2.53;2.43;;;20.90;77.60;;;;;;5068365;28;44030;-72
2023/10/09 01:12:06;;;;;;;2.70;2.60;;;20.90;77.70;;;;;;5066817;28;43427;-73
2023/10/09 01:14:37;;;;;;;2.20;2.20;;;20.80;77.60;;;;;;5071334;28;43867;-67
2023/10/09 01:17:08;;;;;;;2.33;2.33;;;20.80;77.80;;;;;;5073236;28;43383;-66
2023/10/09 01:19:38;;;;;;;2.20;2.20;;;20.70;77.90;;;;;;5075382;28;43355;-66
2023/10/09 01:22:12;;;;;;;2.30;2.20;;;20.70;78.30;;;;;;5070708;28;43542;-67
2023/10/09 01:24:43;;;;;;;2.60;2.50;;;20.70;78.20;;;;;;5067456;28;46818;-70
2023/10/09 01:27:14;;;;;;;2.67;2.47;;;20.80;77.70;;;;;;5066353;28;44761;-70
2023/10/09 01:29:45;;;;;;;2.27;2.27;;;20.90;77.50;;;;;;5066069;28;43414;-70
2023/10/09 01:32:18;;;;;;;2.20;2.20;;;20.90;77.40;;;;;;5065986;28;44069;-70
2023/10/09 01:34:49;;;;;;;2.50;2.40;;;20.90;77.60;;;;;;5066126;28;45937;-70
2023/10/09 01:37:18;;;;;;;2.13;2.13;;;20.90;77.70;;;;;;5063304;28;43444;-70
2023/10/09 01:39:50;;;;;;;2.40;2.40;;;20.90;77.60;;;;;;5071554;28;43389;-70
2023/10/09 01:42:27;;;;;;;2.43;2.33;;;20.80;77.60;;;;;;5069829;28;43425;-70
2023/10/09 01:44:58;;;;;;;2.47;2.37;;;20.80;77.70;;;;;;5070880;28;44067;-70
2023/10/09 01:47:31;;;;;;;2.60;2.50;;;20.70;78.00;;;;;;5069365;28;44890;-70
2023/10/09 01:50:04;;;;;;;2.37;2.37;;;20.70;78.20;;;;;;5071435;28;43833;-70
2023/10/09 01:52:35;;;;;;;2.43;2.33;;;20.70;78.10;;;;;;5069563;28;43500;-70
2023/10/09 01:55:15;;;;;;;2.40;2.40;;;20.70;78.10;;;;;;5069633;28;45784;-70
2023/10/09 01:57:52;;;;;;;2.47;2.47;;;20.60;78.20;;;;;;5069289;28;44786;-70
2023/10/09 02:00:24;;;;;;;2.40;2.40;;;20.60;78.50;;;;;;5086553;27;43425;-70
2023/10/09 02:02:52;;;;;;;2.43;2.33;;;20.60;78.40;;;;;;5069347;28;43550;-70
2023/10/09 02:05:26;;;;;;;2.10;2.10;;;20.60;78.30;;;;;;5070482;28;43964;-70
2023/10/09 02:07:54;;;;;;;2.20;2.20;;;20.60;78.40;;;;;;5069735;28;44054;-70
2023/10/09 02:10:31;;;;;;;2.30;2.30;;;20.60;78.60;;;;;;5070836;28;43387;-70
2023/10/09 02:13:06;;;;;;;2.27;2.27;;;20.60;78.80;;;;;;5069437;28;44080;-70
2023/10/09 02:15:53;;;;;;;2.33;2.33;;;20.70;78.40;;;;;;5068984;28;45684;-70
2023/10/09 02:18:39;;;;;;;2.13;2.13;;;20.80;77.80;;;;;;5069215;28;45512;-70
2023/10/09 02:21:14;;;;;;;2.23;2.23;;;21.00;77.20;;;;;;5069026;28;43439;-70
2023/10/09 02:23:46;;;;;;;2.40;2.40;;;21.10;76.80;;;;;;5072176;28;43457;-66
2023/10/09 02:26:19;;;;;;;2.40;2.30;;;21.10;76.70;;;;;;5074667;28;43869;-67
2023/10/09 02:28:58;;;;;;;2.30;2.30;;;21.00;76.90;;;;;;5069358;28;43795;-66
2023/10/09 02:31:35;;;;;;;2.50;2.40;;;20.90;77.10;;;;;;5072229;28;43442;-66
2023/10/09 02:34:10;;;;;;;2.63;2.53;;;20.90;77.70;;;;;;5072221;28;43409;-72
2023/10/09 02:36:42;;;;;;;2.30;2.20;;;20.80;77.70;;;;;;5064890;28;43956;-72
2023/10/09 02:39:22;;;;;;;2.33;2.33;;;20.80;78.50;;;;;;5069414;28;44901;-72
2023/10/09 02:41:55;;;;;;;2.50;2.40;;;20.70;77.80;;;;;;5067428;28;43402;-72
2023/10/09 02:44:31;;;;;;;2.53;2.43;;;20.70;78.00;;;;;;5069520;28;43618;-72
2023/10/09 02:46:59;;;;;;;2.20;2.10;;;20.60;78.20;;;;;;5068590;28;45753;-71
2023/10/09 02:49:28;;;;;;;2.27;2.27;;;20.60;78.20;;;;;;5085108;27;45003;-72
2023/10/09 02:51:56;;;;;;;2.30;2.10;;;20.60;78.10;;;;;;5068823;28;43521;-71
2023/10/09 02:54:35;;;;;;;2.50;2.50;;;20.60;78.30;;;;;;5069018;28;43582;-72
2023/10/09 02:57:08;;;;;;;2.27;2.27;;;20.60;78.50;;;;;;5070392;28;43602;-72
2023/10/09 02:59:38;;;;;;;2.80;2.70;;;20.60;78.60;;;;;;5068952;28;45547;-72
2023/10/09 03:02:07;;;;;;;2.67;2.57;;;20.70;78.20;;;;;;5064484;28;43432;-72
2023/10/09 03:04:35;;;;;;;2.50;2.50;;;20.80;77.80;;;;;;5070423;28;43425;-72
2023/10/09 03:07:04;;;;;;;2.20;2.20;;;21.00;77.20;;;;;;5068491;28;46056;-71
2023/10/09 03:09:34;;;;;;;2.23;2.23;;;21.10;76.80;;;;;;5068323;28;43963;-72
2023/10/09 03:12:05;;;;;;;2.40;2.30;;;21.10;76.70;;;;;;5068132;28;44022;-72
2023/10/09 03:14:38;;;;;;;2.33;2.33;;;21.00;76.80;;;;;;5068798;28;43474;-71
2023/10/09 03:17:07;;;;;;;2.37;2.27;;;20.90;77.10;;;;;;5068347;28;44375;-72
2023/10/09 03:19:37;;;;;;;2.80;2.70;;;20.80;77.40;;;;;;5069489;28;43403;-72
2023/10/09 03:22:09;;;;;;;2.50;2.50;;;20.80;77.60;;;;;;5068559;28;43458;-72
2023/10/09 03:24:43;;;;;;;2.20;2.20;;;20.80;77.60;;;;;;5069239;28;43509;-71
2023/10/09 03:27:15;;;;;;;2.03;2.03;;;20.80;77.70;;;;;;5066076;28;45667;-72
2023/10/09 03:29:48;;;;;;;2.40;2.40;;;20.70;77.80;;;;;;5067958;28;44983;-72
2023/10/09 03:32:19;;;;;;;2.30;2.30;;;20.70;78.20;;;;;;5069909;28;43449;-72
2023/10/09 03:34:49;;;;;;;2.17;2.17;;;20.70;78.20;;;;;;5069836;28;43458;-71
2023/10/09 03:37:33;;;;;;;2.17;2.17;;;20.70;78.10;;;;;;5069041;28;43977;-72
2023/10/09 03:40:07;;;;;;;2.17;2.17;;;20.60;78.80;;;;;;5064961;28;43557;-72
2023/10/09 03:42:38;;;;;;;2.40;2.37;;;20.60;78.20;;;;;;5069860;28;43451;-71
2023/10/09 03:45:18;;;;;;;2.40;2.30;;;20.60;78.50;;;;;;5069434;28;43397;-72
2023/10/09 03:47:48;;;;;;;2.23;2.17;;;20.60;78.40;;;;;;5069152;28;44237;-72
2023/10/09 03:50:26;;;;;;;2.10;2.10;;;20.60;78.30;;;;;;5069418;28;43402;-72
2023/10/09 03:52:55;;;;;;;2.67;2.57;;;20.60;78.20;;;;;;5073173;28;43422;-70
2023/10/09 03:55:27;;;;;;;3.03;2.77;;;20.60;78.50;;;;;;5090112;28;43479;-70
2023/10/09 03:57:59;;;;;;;3.10;2.87;;;20.60;78.50;;;;;;5083151;28;43639;-71
2023/10/09 04:00:29;;;;;;;4.33;3.10;;;20.70;78.20;;;;;;5081372;28;43407;-69
2023/10/09 04:02:58;;;;;;;6.67;3.67;;;20.80;77.60;;;;;;5084302;28;43419;-66
2023/10/09 04:05:28;;;;;;;4.03;3.63;;;21.00;77.10;;;;;;5073296;28;43439;-66
2023/10/09 04:07:58;;;;;;;8.23;4.77;;;21.10;76.60;;;;;;5073214;28;43605;-66
2023/10/09 04:10:50;;;;;;;8.77;4.73;;;21.20;76.50;;;;;;5072179;28;44689;-66
2023/10/09 04:13:32;;;;;;;8.63;4.03;;;21.10;76.50;;;;;;5071959;28;43859;-66
2023/10/09 04:16:09;;;;;;;6.47;4.33;;;21.00;76.70;;;;;;5065633;28;43582;-67
2023/10/09 04:18:38;;;;;;;10.23;5.27;;;20.90;77.20;;;;;;5066491;28;44753;-66
2023/10/09 04:21:33;;;;;;;6.97;4.57;;;20.90;77.30;;;;;;5067120;28;43465;-66
2023/10/09 04:26:48;;;;;;;8.00;4.80;;;20.80;77.50;;;;;;5067900;28;43422;-65
2023/10/09 04:29:23;;;;;;;10.70;5.33;;;20.80;77.80;;;;;;5072825;28;43615;-65
2023/10/09 04:31:52;;;;;;;8.40;5.13;;;20.70;77.90;;;;;;5073826;28;44446;-66
2023/10/09 04:34:28;;;;;;;7.87;5.10;;;20.70;77.90;;;;;;5073234;28;43328;-66
2023/10/09 04:37:00;;;;;;;9.43;4.47;;;20.70;77.90;;;;;;5072887;28;43455;-65
2023/10/09 04:39:47;;;;;;;11.00;5.33;;;20.70;78.00;;;;;;5073345;28;43913;-67
2023/10/09 04:42:36;;;;;;;9.40;5.10;;;20.60;78.30;;;;;;5072266;28;43469;-65
2023/10/09 04:48:06;;;;;;;9.33;4.87;;;20.80;77.70;;;;;;5067833;28;43470;-66
2023/10/09 04:50:45;;;;;;;7.57;5.40;;;20.90;77.40;;;;;;5071247;28;45980;-66
2023/10/09 04:53:25;;;;;;;6.97;4.90;;;20.90;77.30;;;;;;5071698;28;43418;-69
2023/10/09 04:55:57;;;;;;;6.90;5.37;;;20.80;77.50;;;;;;5066385;28;43391;-70
2023/10/09 04:58:26;;;;;;;9.70;5.23;;;20.90;77.60;;;;;;5068323;28;43455;-70
2023/10/09 05:01:12;;;;;;;5.67;4.90;;;20.80;77.50;;;;;;5068102;28;43860;-70
2023/10/09 05:03:44;;;;;;;5.93;4.77;;;20.80;77.60;;;;;;5067954;28;43422;-69
2023/10/09 05:06:42;;;;;;;7.17;4.60;;;20.80;77.70;;;;;;5061786;28;43466;-69
2023/10/09 05:09:13;;;;;;;7.50;5.13;;;20.70;78.00;;;;;;5066512;28;44031;-71
2023/10/09 05:11:54;;;;;;;9.40;4.93;;;20.70;78.10;;;;;;5067483;28;43602;-70
2023/10/09 05:14:27;;;;;;;6.83;4.73;;;20.70;78.10;;;;;;5084454;28;43358;-70
2023/10/09 05:17:01;;;;;;;6.87;4.67;;;20.70;78.10;;;;;;5087390;28;44125;-70
2023/10/09 05:19:42;;;;;;;5.93;4.73;;;20.70;78.20;;;;;;5088332;28;43446;-70
2023/10/09 05:24:54;;;;;;;5.13;4.63;;;20.60;78.50;;;;;;5088010;28;43405;-70
2023/10/09 05:27:45;;;;;;;5.73;4.40;;;20.60;78.40;;;;;;5087894;28;43366;-70
2023/10/09 05:30:24;;;;;;;4.90;4.40;;;20.60;78.20;;;;;;5083552;28;43434;-70
2023/10/09 05:33:03;;;;;;;5.37;4.40;;;20.60;78.40;;;;;;5087683;28;43915;-70
2023/10/09 05:35:39;;;;;;;5.70;4.73;;;20.60;78.80;;;;;;5087943;28;43398;-70
2023/10/09 05:38:23;;;;;;;5.07;4.43;;;20.60;78.40;;;;;;5087748;28;43433;-70
2023/10/09 05:40:53;;;;;;;4.17;3.80;;;20.80;78.00;;;;;;5082578;28;43502;-70
2023/10/09 05:46:15;;;;;;;5.13;4.30;;;21.10;76.90;;;;;;5101620;28;43946;-70
2023/10/09 05:48:54;;;;;;;4.30;3.90;;;21.10;76.70;;;;;;5086484;28;43322;-70
2023/10/09 06:05:51;;;;;;;5.13;4.10;;;20.80;77.80;;;;;;5061972;28;43618;-71
2023/10/09 06:08:24;;;;;;;5.47;4.53;;;20.70;78.00;;;;;;5067503;28;44199;-70
2023/10/09 06:11:38;;;;;;;5.00;4.40;;;20.70;78.30;;;;;;5067826;28;43361;-72
2023/10/09 06:14:03;;;;;;;5.23;4.37;;;20.60;78.20;;;;;;5062358;28;43471;-71
2023/10/09 06:16:41;;;;;;;4.70;4.23;;;20.60;78.20;;;;;;5066760;28;43753;-71
2023/10/09 06:19:11;;;;;;;4.13;3.77;;;20.60;78.20;;;;;;5067132;28;43352;-72
2023/10/09 06:24:41;;;;;;;4.50;4.13;;;20.60;78.70;;;;;;5044010;28;43376;-70
2023/10/09 06:27:13;;;;;;;4.37;3.97;;;20.70;78.20;;;;;;5070490;28;44105;-71
2023/10/09 06:29:52;;;;;;;6.57;4.73;;;20.80;77.60;;;;;;5069063;28;43382;-70
2023/10/09 06:32:34;;;;;;;4.73;4.33;;;20.90;77.40;;;;;;5069294;28;44032;-71
2023/10/09 06:35:22;;;;;;;4.50;4.10;;;20.90;77.40;;;;;;5070597;28;43478;-71
2023/10/09 06:43:36;;;;;;;4.43;4.03;;;20.80;77.50;;;;;;5070133;28;43542;-70
2023/10/09 06:48:59;;;;;;;4.30;3.90;;;20.70;78.00;;;;;;5070408;28;43725;-72
2023/10/09 06:51:42;;;;;;;4.80;4.40;;;20.70;77.90;;;;;;5069542;28;43925;-72
2023/10/09 06:54:15;;;;;;;4.60;4.20;;;20.80;77.60;;;;;;5064678;28;43493;-71
2023/10/09 07:00:47;;;;;;;4.47;4.07;;;20.90;77.30;;;;;;5068291;28;45365;-72
2023/10/09 07:02:36;;;;;;;4.00;3.70;;;20.80;77.50;;;;;;5068134;28;45009;-72
2023/10/09 07:05:10;;;;;;;4.50;4.10;;;20.90;77.60;;;;;;5070461;28;43434;-72
2023/10/09 07:07:50;;;;;;;4.20;3.80;;;20.90;77.70;;;;;;5069781;28;43446;-72
2023/10/09 07:10:32;;;;;;;4.20;3.80;;;20.80;77.60;;;;;;5068862;28;43875;-71
2023/10/09 07:13:02;;;;;;;4.30;3.90;;;20.80;77.80;;;;;;5071789;28;43375;-70
2023/10/09 07:18:23;;;;;;;4.13;3.83;;;20.70;78.10;;;;;;5089664;28;43425;-70
2023/10/09 07:21:01;;;;;;;4.23;3.90;;;20.70;78.00;;;;;;5088511;28;44958;-70
2023/10/09 07:23:32;;;;;;;3.70;3.40;;;20.70;78.10;;;;;;5089499;28;43517;-70
2023/10/09 07:26:23;;;;;;;4.40;4.00;;;20.60;78.20;;;;;;5090606;28;43442;-69
2023/10/09 07:29:00;;;;;;;3.47;3.27;;;20.60;78.50;;;;;;5090796;28;43474;-71
2023/10/09 07:31:39;;;;;;;3.77;3.57;;;20.60;78.40;;;;;;5090224;28;43686;-69
2023/10/09 07:34:30;;;;;;;3.40;3.20;;;20.60;78.30;;;;;;5087405;28;44710;-69
2023/10/09 07:37:03;;;;;;;4.20;3.90;;;20.60;78.30;;;;;;5084119;28;43514;-68
2023/10/09 07:39:35;;;;;;;4.33;4.03;;;20.60;78.60;;;;;;5090231;28;43439;-70
2023/10/09 07:42:33;;;;;;;3.73;3.53;;;20.60;78.70;;;;;;5089304;28;43693;-71
2023/10/09 07:45:12;;;;;;;4.13;3.80;;;20.70;78.30;;;;;;5083166;28;43363;-70
2023/10/09 07:50:37;;;;;;;4.10;3.80;;;21.00;77.00;;;;;;5089722;28;43328;-70
2023/10/09 07:55:55;;;;;;;3.33;3.20;;;21.10;76.70;;;;;;5088724;28;43423;-70
2023/10/09 07:58:25;;;;;;;3.83;3.60;;;21.00;76.90;;;;;;5089004;28;43408;-71
2023/10/09 08:01:07;;;;;;;4.13;3.83;;;20.90;77.30;;;;;;5088431;28;43490;-70
2023/10/09 08:03:36;;;;;;;4.07;3.77;;;20.80;77.40;;;;;;5088939;28;43820;-70
2023/10/09 08:14:48;;;;;;;3.73;3.47;;;20.70;78.20;;;;;;5103918;28;45496;-70
2023/10/09 08:17:15;;;;;;;4.00;3.70;;;20.60;78.20;;;;;;5088855;28;44467;-69
2023/10/09 08:19:57;;;;;;;3.50;3.20;;;20.60;78.10;;;;;;5089092;28;43438;-69
2023/10/09 08:22:44;;;;;;;3.73;3.47;;;20.60;78.20;;;;;;5085699;28;43341;-68
2023/10/09 08:25:27;;;;;;;3.80;3.60;;;20.60;78.50;;;;;;5068446;28;43590;-70
2023/10/09 08:27:57;;;;;;;3.57;3.37;;;20.60;78.70;;;;;;5064834;28;44981;-77
2023/10/09 08:30:40;;;;;;;3.40;3.20;;;20.60;78.40;;;;;;5067935;28;43363;-70
2023/10/09 08:36:04;;;;;;;3.53;3.37;;;20.90;77.30;;;;;;5060963;28;44572;-71
2023/10/09 08:38:34;;;;;;;3.40;3.20;;;20.90;77.00;;;;;;5067807;28;43462;-70
2023/10/09 08:41:18;;;;;;;3.80;3.60;;;20.90;77.10;;;;;;5068482;28;43505;-70
2023/10/09 08:43:51;;;;;;;2.90;2.80;;;20.90;77.40;;;;;;5069133;28;43466;-70
2023/10/09 08:46:23;;;;;;;3.70;3.50;;;20.80;77.70;;;;;;5067334;28;43860;-70
2023/10/09 08:48:51;;;;;;;3.60;3.40;;;20.80;78.00;;;;;;5068197;28;43472;-70
2023/10/09 08:51:20;;;;;;;3.73;3.53;;;20.80;78.00;;;;;;5067968;28;43366;-70
2023/10/09 08:53:48;;;;;;;3.43;3.23;;;20.70;78.10;;;;;;5068670;28;43380;-71
2023/10/09 08:56:21;;;;;;;3.13;2.97;;;20.60;78.00;;;;;;5067778;28;43860;-70
2023/10/09 08:58:53;;;;;;;3.70;3.50;;;20.60;78.40;;;;;;5067530;28;43961;-70
2023/10/09 09:01:24;;;;;;;3.50;3.20;;;20.60;78.40;;;;;;5065734;28;43423;-70
2023/10/09 09:03:55;;;;;;;3.40;3.20;;;20.70;78.20;;;;;;5067912;28;43493;-70
2023/10/09 09:06:24;;;;;;;3.73;3.53;;;20.80;77.70;;;;;;5060866;28;43669;-70
2023/10/09 09:08:54;;;;;;;2.93;2.83;;;20.90;77.60;;;;;;5067859;28;44025;-70
2023/10/09 09:11:24;;;;;;;3.50;3.30;;;20.80;77.50;;;;;;5066658;28;43347;-70
2023/10/09 09:14:04;;;;;;;3.73;3.53;;;20.80;77.70;;;;;;5068162;28;43502;-70
2023/10/09 09:16:36;;;;;;;2.93;2.83;;;20.80;77.70;;;;;;5067724;28;43992;-70
2023/10/09 09:19:17;;;;;;;2.97;2.87;;;20.80;77.70;;;;;;5067934;28;43436;-70
2023/10/09 09:21:54;;;;;;;3.43;3.23;;;20.80;77.80;;;;;;5066667;28;43979;-70
2023/10/09 09:24:33;;;;;;;3.73;3.57;;;20.70;78.20;;;;;;5068613;28;43446;-70
2023/10/09 09:27:12;;;;;;;3.30;3.10;;;20.70;78.20;;;;;;5066678;28;43893;-70
2023/10/09 09:29:52;;;;;;;3.20;3.00;;;20.70;79.00;;;;;;5066920;28;44033;-70
2023/10/09 09:33:15;;;;;;;2.70;2.60;;;20.60;78.20;;;;;;5067273;28;43746;-70
2023/10/09 09:35:33;;;;;;;3.07;2.97;;;20.60;78.30;;;;;;5064269;28;43530;-70
2023/10/09 09:38:04;;;;;;;3.20;3.10;;;20.60;78.70;;;;;;5067679;28;44030;-70
2023/10/09 09:40:41;;;;;;;3.63;3.33;;;20.60;78.60;;;;;;5067735;28;43364;-70
2023/10/09 09:43:21;;;;;;;2.90;2.70;;;20.60;78.50;;;;;;5067820;28;43456;-70
2023/10/09 09:45:50;;;;;;;3.10;2.90;;;20.60;78.50;;;;;;5067907;28;43444;-70
2023/10/09 09:48:20;;;;;;;3.23;3.07;;;20.50;78.70;;;;;;5061235;28;43597;-70
2023/10/09 09:50:53;;;;;;;3.23;3.03;;;20.50;78.80;;;;;;5067332;28;43517;-70
2023/10/09 09:53:23;;;;;;;3.00;2.90;;;20.60;78.60;;;;;;5063570;28;43326;-71
2023/10/09 09:55:57;;;;;;;3.07;2.97;;;20.80;78.10;;;;;;5068026;28;43494;-72
2023/10/09 09:58:32;;;;;;;2.70;2.60;;;20.90;77.50;;;;;;5064891;28;45657;-72
2023/10/09 10:01:03;;;;;;;3.30;3.10;;;21.00;77.20;;;;;;5069621;28;45169;-71
2023/10/09 10:03:37;;;;;;;2.83;2.73;;;21.00;77.90;;;;;;5068728;28;43486;-72
2023/10/09 10:06:10;;;;;;;2.90;2.80;;;20.90;77.30;;;;;;5071650;28;43817;-71
2023/10/09 10:08:39;;;;;;;3.37;3.17;;;20.80;77.50;;;;;;5070904;28;43856;-71
2023/10/09 10:11:13;;;;;;;3.10;3.00;;;20.80;78.00;;;;;;5071006;28;43364;-70
2023/10/09 10:13:59;;;;;;;3.10;3.00;;;20.70;77.90;;;;;;5069626;28;43437;-71
2023/10/09 10:16:34;;;;;;;3.07;2.90;;;20.70;77.90;;;;;;5069358;28;43361;-72
2023/10/09 10:19:22;;;;;;;3.20;3.10;;;20.70;78.10;;;;;;5069531;28;45666;-72
2023/10/09 10:21:50;;;;;;;3.00;2.90;;;20.60;78.40;;;;;;5070744;28;43417;-72
2023/10/09 10:25:02;;;;;;;2.90;2.80;;;20.60;78.50;;;;;;5070773;28;43935;-72
2023/10/09 10:27:32;;;;;;;2.73;2.63;;;20.70;78.20;;;;;;5070077;28;43510;-72
2023/10/09 10:30:33;;;;;;;2.80;2.70;;;20.80;78.50;;;;;;5070691;28;43806;-72
2023/10/09 10:33:10;;;;;;;2.70;2.60;;;20.80;77.70;;;;;;5070417;28;43399;-73
2023/10/09 10:35:52;;;;;;;2.83;2.73;;;20.80;77.90;;;;;;5068225;28;43481;-72
2023/10/09 10:38:34;;;;;;;2.93;2.83;;;20.80;77.90;;;;;;5071007;28;43509;-71
2023/10/09 10:41:19;;;;;;;2.97;2.87;;;20.70;77.80;;;;;;5065358;28;44107;-71
2023/10/09 10:43:59;;;;;;;2.60;2.50;;;20.70;77.90;;;;;;5070757;28;43366;-69
2023/10/09 10:46:41;;;;;;;3.10;3.00;;;20.70;78.10;;;;;;5068957;28;44138;-70
2023/10/09 10:49:21;;;;;;;3.17;3.07;;;20.60;78.40;;;;;;5070526;28;43382;-71
2023/10/09 10:52:01;;;;;;;2.90;2.70;;;20.70;78.20;;;;;;5070167;28;44677;-71
2023/10/09 10:57:28;;;;;;;2.80;2.70;;;20.70;77.90;;;;;;5063889;28;43350;-70
2023/10/09 11:00:40;;;;;;;2.70;2.60;;;20.70;78.10;;;;;;5064869;28;43452;-70
2023/10/09 11:03:13;;;;;;;2.90;2.70;;;20.70;78.10;;;;;;5068865;28;45727;-70
2023/10/09 11:05:42;;;;;;;2.63;2.53;;;20.70;78.00;;;;;;5064722;28;43486;-70
2023/10/09 11:08:13;;;;;;;2.77;2.67;;;20.70;78.10;;;;;;5069218;28;43450;-70
2023/10/09 11:10:49;;;;;;;2.70;2.60;;;20.70;78.20;;;;;;5069712;28;43455;-70
2023/10/09 11:13:35;;;;;;;2.80;2.70;;;20.60;78.50;;;;;;5068853;28;43929;-70
2023/10/09 11:16:28;;;;;;;2.83;2.73;;;20.60;78.50;;;;;;5069524;28;43814;-69
2023/10/09 11:19:04;;;;;;;2.47;2.37;;;20.70;78.20;;;;;;5064065;28;43382;-69
2023/10/09 11:21:32;;;;;;;2.70;2.50;;;20.80;77.80;;;;;;5066563;28;43553;-69
2023/10/09 11:24:24;;;;;;;2.90;2.67;;;20.80;77.70;;;;;;5069516;28;44041;-70
2023/10/09 11:26:55;;;;;;;2.60;2.50;;;20.80;78.00;;;;;;5068162;28;43469;-70
2023/10/09 11:29:52;;;;;;;2.67;2.57;;;20.80;77.90;;;;;;5063558;28;43405;-69
2023/10/09 11:32:18;;;;;;;2.40;2.30;;;20.80;77.80;;;;;;5069597;28;43456;-70
2023/10/09 11:34:51;;;;;;;2.57;2.47;;;20.80;77.90;;;;;;5069536;28;43623;-70
2023/10/09 11:37:38;;;;;;;2.60;2.50;;;20.70;78.00;;;;;;5069832;28;43374;-70
2023/10/09 11:40:23;;;;;;;2.30;2.23;;;20.60;78.30;;;;;;5063568;28;43685;-70
2023/10/09 11:42:57;;;;;;;2.60;2.50;;;20.70;78.50;;;;;;5068719;28;43337;-70
2023/10/09 11:45:28;;;;;;;2.30;2.20;;;20.70;78.40;;;;;;5069120;28;43914;-69
2023/10/09 11:47:58;;;;;;;2.30;2.30;;;20.60;78.40;;;;;;5069089;28;43401;-70
2023/10/09 11:50:42;;;;;;;2.60;2.50;;;20.60;79.30;;;;;;5065330;28;43352;-70
2023/10/09 11:53:17;;;;;;;2.60;2.50;;;20.60;78.80;;;;;;5069611;28;43451;-72
2023/10/09 11:55:48;;;;;;;2.30;2.30;;;20.60;78.60;;;;;;5063311;28;44016;-72
2023/10/09 11:58:22;;;;;;;2.50;2.50;;;20.70;78.20;;;;;;5069447;28;43933;-71
2023/10/09 12:00:56;;;;;;;2.20;2.20;;;20.80;77.60;;;;;;5069141;28;43393;-71
2023/10/09 12:03:29;;;;;;;2.60;2.50;;;21.00;77.20;;;;;;5069542;28;43790;-72
2023/10/09 12:05:58;;;;;;;2.40;2.40;;;21.00;77.00;;;;;;5068971;28;44399;-72
2023/10/09 12:08:27;;;;;;;2.20;2.20;;;21.00;77.40;;;;;;5069149;28;43406;-71
2023/10/09 12:10:57;;;;;;;2.43;2.33;;;20.90;77.70;;;;;;5069233;28;43375;-72
2023/10/09 12:13:25;;;;;;;2.47;2.37;;;20.80;77.90;;;;;;5071782;28;43446;-66
2023/10/09 12:15:53;;;;;;;2.27;2.27;;;20.80;78.00;;;;;;5073470;28;43760;-65
2023/10/09 12:18:23;;;;;;;2.60;2.50;;;20.70;78.10;;;;;;5073268;28;43920;-66
2023/10/09 12:20:52;;;;;;;2.30;2.27;;;20.70;78.40;;;;;;5070155;28;43417;-66
2023/10/09 12:23:21;;;;;;;2.40;2.37;;;20.70;78.60;;;;;;5073328;28;43435;-65
2023/10/09 12:25:49;;;;;;;2.20;2.10;;;20.60;78.60;;;;;;5072376;28;45477;-65
2023/10/09 12:28:20;;;;;;;2.30;2.30;;;20.60;78.50;;;;;;5073399;28;43369;-66
2023/10/09 12:30:50;;;;;;;2.13;2.13;;;20.60;78.70;;;;;;5072825;28;43439;-66
2023/10/09 12:33:19;;;;;;;2.50;2.40;;;20.60;78.80;;;;;;5073491;28;43376;-66
2023/10/09 12:35:48;;;;;;;2.60;2.50;;;20.60;78.90;;;;;;5071882;28;46158;-66
2023/10/09 12:38:18;;;;;;;2.53;2.43;;;20.60;79.00;;;;;;5073122;28;43398;-66
2023/10/09 12:40:51;;;;;;;2.50;2.40;;;20.60;79.00;;;;;;5071894;28;43344;-65
2023/10/09 12:43:22;;;;;;;2.10;2.10;;;20.60;78.90;;;;;;5073416;28;43442;-65
2023/10/09 12:45:51;;;;;;;2.17;2.17;;;20.50;79.00;;;;;;5062585;28;45958;-68
2023/10/09 12:48:19;;;;;;;2.10;2.10;;;20.50;79.00;;;;;;5071429;28;43510;-65
2023/10/09 12:50:47;;;;;;;2.60;2.50;;;20.50;79.00;;;;;;5071000;28;43354;-66
2023/10/09 12:53:17;;;;;;;2.60;2.50;;;20.50;79.00;;;;;;5065458;28;43430;-67
2023/10/09 12:55:47;;;;;;;2.53;2.43;;;20.60;78.80;;;;;;5072560;28;43934;-67
2023/10/09 12:58:18;;;;;;;2.23;2.13;;;20.70;78.20;;;;;;5073360;28;43371;-67
2023/10/09 13:00:49;;;;;;;2.30;2.30;;;20.90;77.70;;;;;;5072503;28;43398;-66
2023/10/09 13:03:28;;;;;;;2.60;2.40;;;21.00;77.10;;;;;;5072967;28;43454;-66
2023/10/09 13:05:56;;;;;;;2.47;2.37;;;21.00;76.90;;;;;;5069914;28;43692;-67
2023/10/09 13:08:31;;;;;;;2.30;2.20;;;21.00;77.20;;;;;;5072623;28;43525;-67
2023/10/09 13:11:08;;;;;;;2.00;2.00;;;20.90;77.40;;;;;;5073487;28;43421;-67
2023/10/09 13:13:46;;;;;;;2.57;2.47;;;20.80;77.70;;;;;;5070855;28;43973;-67
2023/10/09 13:16:22;;;;;;;2.27;2.27;;;20.80;77.70;;;;;;5071869;28;43571;-67
2023/10/09 13:18:51;;;;;;;2.47;2.37;;;20.80;77.90;;;;;;5072927;28;43434;-66
2023/10/09 13:21:20;;;;;;;2.60;2.50;;;20.80;78.20;;;;;;5072800;28;43406;-66
2023/10/09 13:23:49;;;;;;;2.20;2.20;;;20.70;78.20;;;;;;5072732;28;43454;-66
2023/10/09 13:26:24;;;;;;;2.23;2.13;;;20.70;78.40;;;;;;5072296;28;43741;-66
2023/10/09 13:29:01;;;;;;;2.60;2.50;;;20.70;78.30;;;;;;5072584;28;43352;-66
2023/10/09 13:31:32;;;;;;;2.37;2.27;;;20.70;78.50;;;;;;5072505;28;43390;-66
2023/10/09 13:34:01;;;;;;;2.20;2.20;;;20.60;78.50;;;;;;5072619;28;43794;-67
2023/10/09 13:36:31;;;;;;;2.07;2.03;;;20.60;78.60;;;;;;5071656;28;44944;-66
2023/10/09 13:39:02;;;;;;;2.30;2.30;;;20.60;78.70;;;;;;5071969;28;43389;-66
2023/10/09 13:41:30;;;;;;;2.10;2.10;;;20.60;78.50;;;;;;5071970;28;43462;-66
2023/10/09 13:43:58;;;;;;;2.50;2.40;;;20.60;78.60;;;;;;5070209;28;43479;-66
2023/10/09 13:46:26;;;;;;;2.47;2.37;;;20.60;78.60;;;;;;5069498;28;43606;-66
2023/10/09 13:48:56;;;;;;;2.27;2.23;;;20.60;78.70;;;;;;5071347;28;43372;-66
2023/10/09 13:51:24;;;;;;;2.50;2.30;;;20.50;78.80;;;;;;5071542;28;44061;-66
2023/10/09 13:53:52;;;;;;;2.37;2.33;;;20.60;78.50;;;;;;5071868;28;43966;-66
2023/10/09 13:56:21;;;;;;;2.20;2.20;;;20.70;78.10;;;;;;5071946;28;43933;-66
2023/10/09 13:58:50;;;;;;;2.10;2.10;;;20.80;77.60;;;;;;5072752;28;44011;-70
2023/10/09 14:01:26;;;;;;;2.50;2.40;;;21.00;77.20;;;;;;5070012;28;43360;-66
2023/10/09 14:04:00;;;;;;;2.20;2.20;;;21.00;76.90;;;;;;5068441;28;43432;-68
2023/10/09 14:06:31;;;;;;;2.37;2.27;;;21.00;77.10;;;;;;5067389;28;44176;-67
2023/10/09 14:09:00;;;;;;;2.17;2.17;;;20.90;77.20;;;;;;5066073;28;43417;-67
2023/10/09 14:11:28;;;;;;;2.07;2.07;;;20.80;77.40;;;;;;5069121;28;43522;-66
2023/10/09 14:13:56;;;;;;;2.40;2.20;;;20.80;77.70;;;;;;5075804;28;43414;-70
2023/10/09 14:16:42;;;;;;;2.10;2.10;;;20.80;77.70;;;;;;5086765;28;45865;-70
2023/10/09 14:19:14;;;;;;;2.40;2.30;;;20.70;77.80;;;;;;5087387;28;43326;-70
2023/10/09 14:21:42;;;;;;;2.13;2.13;;;20.70;78.10;;;;;;5088641;28;43410;-70
2023/10/09 14:24:16;;;;;;;2.47;2.37;;;20.70;78.20;;;;;;5088292;28;43369;-70
2023/10/09 14:26:48;;;;;;;2.23;2.23;;;20.60;78.20;;;;;;5088170;28;43902;-71